sensor_id;sensor_type;location;lat;lon;timestamp;pressure;altitude;pressure_sealevel;temperature;humidity
72285;BME280;60220;53.552;10.092;2023-04-28T00:01:43;101645.88;;;6.98;70.50
72285;BME280;60220;53.552;10.092;2023-04-28T00:04:09;101640.91;;;7.14;70.29
72285;BME280;60220;53.552;10.092;2023-04-28T00:06:36;101643.66;;;7.23;69.47
72285;BME280;60220;53.552;10.092;2023-04-28T00:09:06;101640.22;;;7.24;69.40
72285;BME280;60220;53.552;10.092;2023-04-28T00:11:38;101642.16;;;6.82;70.65
72285;BME280;60220;53.552;10.092;2023-04-28T00:14:05;101639.81;;;6.97;71.56
72285;BME280;60220;53.552;10.092;2023-04-28T00:16:32;101642.47;;;7.03;70.90
72285;BME280;60220;53.552;10.092;2023-04-28T00:19:02;101623.22;;;6.95;70.74
72285;BME280;60220;53.552;10.092;2023-04-28T00:21:29;101625.34;;;7.20;69.79
72285;BME280;60220;53.552;10.092;2023-04-28T00:23:56;101630.13;;;6.93;70.43
72285;BME280;60220;53.552;10.092;2023-04-28T00:26:23;101625.88;;;6.98;70.69
72285;BME280;60220;53.552;10.092;2023-04-28T00:28:51;101625.75;;;6.90;70.77
72285;BME280;60220;53.552;10.092;2023-04-28T00:31:20;101625.97;;;7.04;70.67
72285;BME280;60220;53.552;10.092;2023-04-28T00:33:46;101625.13;;;7.05;70.33
72285;BME280;60220;53.552;10.092;2023-04-28T00:36:13;101623.31;;;7.01;69.79
72285;BME280;60220;53.552;10.092;2023-04-28T00:38:42;101618.47;;;6.70;70.50
72285;BME280;60220;53.552;10.092;2023-04-28T00:41:12;101620.28;;;6.75;70.26
72285;BME280;60220;53.552;10.092;2023-04-28T00:43:44;101618.09;;;7.01;70.73
72285;BME280;60220;53.552;10.092;2023-04-28T00:46:19;101611.13;;;7.00;70.19
72285;BME280;60220;53.552;10.092;2023-04-28T00:48:46;101608.97;;;6.75;70.53
72285;BME280;60220;53.552;10.092;2023-04-28T00:51:14;101608.94;;;6.73;70.54
72285;BME280;60220;53.552;10.092;2023-04-28T00:53:41;101606.56;;;6.88;71.72
72285;BME280;60220;53.552;10.092;2023-04-28T00:56:08;101605.28;;;6.61;71.41
72285;BME280;60220;53.552;10.092;2023-04-28T00:58:36;101605.78;;;6.40;71.86
72285;BME280;60220;53.552;10.092;2023-04-28T01:01:03;101606.66;;;6.40;71.67
72285;BME280;60220;53.552;10.092;2023-04-28T01:03:35;101594.47;;;6.39;71.43
72285;BME280;60220;53.552;10.092;2023-04-28T01:06:03;101598.28;;;6.60;70.82
72285;BME280;60220;53.552;10.092;2023-04-28T01:08:31;101600.72;;;6.49;71.54
72285;BME280;60220;53.552;10.092;2023-04-28T01:11:00;101599.69;;;6.39;71.89
72285;BME280;60220;53.552;10.092;2023-04-28T01:13:28;101599.47;;;6.27;71.50
72285;BME280;60220;53.552;10.092;2023-04-28T01:15:54;101597.56;;;6.17;72.69
72285;BME280;60220;53.552;10.092;2023-04-28T01:18:24;101589.25;;;6.39;71.80
72285;BME280;60220;53.552;10.092;2023-04-28T01:20:53;101592.63;;;6.32;71.57
72285;BME280;60220;53.552;10.092;2023-04-28T01:23:20;101589.91;;;6.26;71.15
72285;BME280;60220;53.552;10.092;2023-04-28T01:25:50;101592.50;;;6.26;71.26
72285;BME280;60220;53.552;10.092;2023-04-28T01:28:19;101591.22;;;6.54;71.36
72285;BME280;60220;53.552;10.092;2023-04-28T01:30:46;101589.31;;;6.42;71.21
72285;BME280;60220;53.552;10.092;2023-04-28T01:33:13;101578.66;;;6.30;71.97
72285;BME280;60220;53.552;10.092;2023-04-28T01:35:39;101580.69;;;6.46;70.71
72285;BME280;60220;53.552;10.092;2023-04-28T01:38:06;101578.81;;;6.39;71.18
72285;BME280;60220;53.552;10.092;2023-04-28T01:40:35;101575.09;;;6.25;71.97
72285;BME280;60220;53.552;10.092;2023-04-28T01:43:05;101578.63;;;6.27;71.28
72285;BME280;60220;53.552;10.092;2023-04-28T01:45:32;101572.03;;;6.49;70.58
72285;BME280;60220;53.552;10.092;2023-04-28T01:48:00;101570.25;;;6.46;71.04
72285;BME280;60220;53.552;10.092;2023-04-28T01:50:26;101575.13;;;6.28;71.30
72285;BME280;60220;53.552;10.092;2023-04-28T01:52:55;101573.34;;;6.24;71.08
72285;BME280;60220;53.552;10.092;2023-04-28T01:55:22;101562.44;;;6.48;70.56
72285;BME280;60220;53.552;10.092;2023-04-28T01:57:49;101562.63;;;6.57;70.16
72285;BME280;60220;53.552;10.092;2023-04-28T02:00:17;101561.31;;;6.34;69.43
72285;BME280;60220;53.552;10.092;2023-04-28T02:02:44;101561.94;;;6.19;70.00
72285;BME280;60220;53.552;10.092;2023-04-28T02:05:10;101554.56;;;6.45;69.46
72285;BME280;60220;53.552;10.092;2023-04-28T02:07:38;101559.72;;;6.40;69.49
72285;BME280;60220;53.552;10.092;2023-04-28T02:10:05;101552.63;;;6.33;69.93
72285;BME280;60220;53.552;10.092;2023-04-28T02:12:32;101546.69;;;6.40;69.39
72285;BME280;60220;53.552;10.092;2023-04-28T02:14:58;101549.78;;;6.20;69.65
72285;BME280;60220;53.552;10.092;2023-04-28T02:17:28;101549.75;;;6.17;70.12
72285;BME280;60220;53.552;10.092;2023-04-28T02:19:57;101550.50;;;6.11;70.52
72285;BME280;60220;53.552;10.092;2023-04-28T02:22:24;101542.25;;;5.87;71.96
72285;BME280;60220;53.552;10.092;2023-04-28T02:24:51;101537.56;;;5.71;72.62
72285;BME280;60220;53.552;10.092;2023-04-28T02:27:18;101541.09;;;5.73;72.93
72285;BME280;60220;53.552;10.092;2023-04-28T02:29:45;101531.91;;;5.93;72.11
72285;BME280;60220;53.552;10.092;2023-04-28T02:32:11;101538.25;;;5.62;72.74
72285;BME280;60220;53.552;10.092;2023-04-28T02:34:39;101535.91;;;5.76;73.04
72285;BME280;60220;53.552;10.092;2023-04-28T02:37:06;101532.22;;;5.64;73.35
72285;BME280;60220;53.552;10.092;2023-04-28T02:39:33;101530.47;;;5.63;72.80
72285;BME280;60220;53.552;10.092;2023-04-28T02:41:59;101525.31;;;5.67;72.67
72285;BME280;60220;53.552;10.092;2023-04-28T02:44:29;101519.13;;;5.60;72.86
72285;BME280;60220;53.552;10.092;2023-04-28T02:46:56;101519.00;;;5.99;72.01
72285;BME280;60220;53.552;10.092;2023-04-28T02:49:25;101517.63;;;5.73;72.14
72285;BME280;60220;53.552;10.092;2023-04-28T02:51:53;101514.53;;;5.48;73.59
72285;BME280;60220;53.552;10.092;2023-04-28T02:54:20;101508.34;;;5.43;74.09
72285;BME280;60220;53.552;10.092;2023-04-28T02:56:54;101507.72;;;5.55;73.04
72285;BME280;60220;53.552;10.092;2023-04-28T02:59:21;101500.38;;;5.34;73.82
72285;BME280;60220;53.552;10.092;2023-04-28T03:01:50;101504.91;;;5.44;73.71
72285;BME280;60220;53.552;10.092;2023-04-28T03:04:19;101496.03;;;5.35;73.54
72285;BME280;60220;53.552;10.092;2023-04-28T03:06:46;101495.16;;;5.34;72.81
72285;BME280;60220;53.552;10.092;2023-04-28T03:09:14;101493.00;;;5.13;73.58
72285;BME280;60220;53.552;10.092;2023-04-28T03:11:41;101490.09;;;5.40;73.21
72285;BME280;60220;53.552;10.092;2023-04-28T03:14:07;101476.19;;;5.40;73.62
72285;BME280;60220;53.552;10.092;2023-04-28T03:16:39;101473.66;;;5.44;73.74
72285;BME280;60220;53.552;10.092;2023-04-28T03:19:05;101469.13;;;5.34;74.06
72285;BME280;60220;53.552;10.092;2023-04-28T03:21:32;101470.19;;;5.44;74.24
72285;BME280;60220;53.552;10.092;2023-04-28T03:23:58;101469.88;;;5.29;73.85
72285;BME280;60220;53.552;10.092;2023-04-28T03:26:26;101467.19;;;5.24;74.23
72285;BME280;60220;53.552;10.092;2023-04-28T03:28:53;101460.69;;;5.46;72.71
72285;BME280;60220;53.552;10.092;2023-04-28T03:31:23;101460.78;;;5.50;72.74
72285;BME280;60220;53.552;10.092;2023-04-28T03:33:50;101463.16;;;5.40;72.86
72285;BME280;60220;53.552;10.092;2023-04-28T03:36:16;101467.63;;;5.45;73.15
72285;BME280;60220;53.552;10.092;2023-04-28T03:38:43;101456.69;;;5.18;73.87
72285;BME280;60220;53.552;10.092;2023-04-28T03:41:12;101458.63;;;5.30;73.10
72285;BME280;60220;53.552;10.092;2023-04-28T03:43:40;101458.25;;;5.55;72.99
72285;BME280;60220;53.552;10.092;2023-04-28T03:46:06;101455.69;;;5.56;72.22
72285;BME280;60220;53.552;10.092;2023-04-28T03:48:33;101449.31;;;5.41;73.31
72285;BME280;60220;53.552;10.092;2023-04-28T03:51:00;101444.34;;;5.54;73.15
72285;BME280;60220;53.552;10.092;2023-04-28T03:53:27;101441.16;;;5.23;72.21
72285;BME280;60220;53.552;10.092;2023-04-28T03:55:53;101448.00;;;5.19;73.03
72285;BME280;60220;53.552;10.092;2023-04-28T03:58:20;101443.06;;;5.31;72.99
72285;BME280;60220;53.552;10.092;2023-04-28T04:00:48;101440.47;;;5.33;73.03
72285;BME280;60220;53.552;10.092;2023-04-28T04:03:15;101437.16;;;5.41;70.97
72285;BME280;60220;53.552;10.092;2023-04-28T04:05:44;101444.38;;;5.56;71.22
72285;BME280;60220;53.552;10.092;2023-04-28T04:08:11;101431.69;;;5.73;70.55
72285;BME280;60220;53.552;10.092;2023-04-28T04:10:38;101437.66;;;5.69;69.67
72285;BME280;60220;53.552;10.092;2023-04-28T04:13:04;101434.41;;;5.80;71.35
72285;BME280;60220;53.552;10.092;2023-04-28T04:15:31;101429.06;;;5.26;72.30
72285;BME280;60220;53.552;10.092;2023-04-28T04:17:59;101421.44;;;5.85;70.80
72285;BME280;60220;53.552;10.092;2023-04-28T04:20:28;101416.97;;;5.76;70.76
72285;BME280;60220;53.552;10.092;2023-04-28T04:22:57;101428.13;;;5.69;72.08
72285;BME280;60220;53.552;10.092;2023-04-28T04:25:24;101424.47;;;5.59;71.30
72285;BME280;60220;53.552;10.092;2023-04-28T04:27:51;101419.44;;;5.67;71.48
72285;BME280;60220;53.552;10.092;2023-04-28T04:30:17;101414.63;;;5.90;70.13
72285;BME280;60220;53.552;10.092;2023-04-28T04:32:44;101412.72;;;5.81;69.52
72285;BME280;60220;53.552;10.092;2023-04-28T04:35:12;101414.06;;;6.08;69.24
72285;BME280;60220;53.552;10.092;2023-04-28T04:37:39;101406.34;;;6.15;68.23
72285;BME280;60220;53.552;10.092;2023-04-28T04:40:06;101411.00;;;5.83;69.87
72285;BME280;60220;53.552;10.092;2023-04-28T04:42:33;101413.34;;;6.19;68.77
72285;BME280;60220;53.552;10.092;2023-04-28T04:45:00;101406.78;;;5.87;68.41
72285;BME280;60220;53.552;10.092;2023-04-28T04:47:27;101398.59;;;6.20;66.91
72285;BME280;60220;53.552;10.092;2023-04-28T04:49:54;101394.34;;;6.26;67.61
72285;BME280;60220;53.552;10.092;2023-04-28T04:52:22;101401.72;;;6.55;66.78
72285;BME280;60220;53.552;10.092;2023-04-28T04:54:49;101398.66;;;6.86;65.36
72285;BME280;60220;53.552;10.092;2023-04-28T04:57:18;101391.75;;;6.91;64.60
72285;BME280;60220;53.552;10.092;2023-04-28T04:59:47;101391.34;;;6.59;65.72
72285;BME280;60220;53.552;10.092;2023-04-28T05:02:14;101388.31;;;6.95;64.76
72285;BME280;60220;53.552;10.092;2023-04-28T05:04:41;101386.94;;;6.55;65.53
72285;BME280;60220;53.552;10.092;2023-04-28T05:07:08;101385.00;;;6.40;65.77
72285;BME280;60220;53.552;10.092;2023-04-28T05:09:36;101383.38;;;6.48;65.44
72285;BME280;60220;53.552;10.092;2023-04-28T05:12:03;101376.38;;;6.46;65.30
72285;BME280;60220;53.552;10.092;2023-04-28T05:14:30;101381.25;;;6.85;64.26
72285;BME280;60220;53.552;10.092;2023-04-28T05:16:59;101383.19;;;7.01;63.36
72285;BME280;60220;53.552;10.092;2023-04-28T05:19:26;101383.31;;;7.13;61.62
72285;BME280;60220;53.552;10.092;2023-04-28T05:21:52;101388.16;;;6.83;62.40
72285;BME280;60220;53.552;10.092;2023-04-28T05:24:20;101378.84;;;7.02;64.02
72285;BME280;60220;53.552;10.092;2023-04-28T05:26:51;101380.47;;;6.92;63.52
72285;BME280;60220;53.552;10.092;2023-04-28T05:29:20;101379.47;;;6.84;63.63
72285;BME280;60220;53.552;10.092;2023-04-28T05:31:47;101378.88;;;7.08;62.59
72285;BME280;60220;53.552;10.092;2023-04-28T05:34:14;101375.56;;;7.19;63.52
72285;BME280;60220;53.552;10.092;2023-04-28T05:36:40;101371.25;;;7.24;62.68
72285;BME280;60220;53.552;10.092;2023-04-28T05:39:07;101373.28;;;7.53;62.73
72285;BME280;60220;53.552;10.092;2023-04-28T05:41:34;101371.50;;;7.49;62.46
72285;BME280;60220;53.552;10.092;2023-04-28T05:44:03;101373.59;;;7.89;60.59
72285;BME280;60220;53.552;10.092;2023-04-28T05:46:30;101368.25;;;7.74;59.78
72285;BME280;60220;53.552;10.092;2023-04-28T05:48:57;101366.22;;;7.41;60.44
72285;BME280;60220;53.552;10.092;2023-04-28T05:51:23;101366.66;;;7.94;59.61
72285;BME280;60220;53.552;10.092;2023-04-28T05:53:53;101354.19;;;7.63;60.08
72285;BME280;60220;53.552;10.092;2023-04-28T05:56:20;101357.16;;;8.04;59.68
72285;BME280;60220;53.552;10.092;2023-04-28T05:58:47;101349.38;;;8.14;58.41
72285;BME280;60220;53.552;10.092;2023-04-28T06:01:18;101351.19;;;8.21;57.38
72285;BME280;60220;53.552;10.092;2023-04-28T06:03:47;101347.91;;;8.54;57.78
72285;BME280;60220;53.552;10.092;2023-04-28T06:06:14;101343.50;;;8.46;56.52
72285;BME280;60220;53.552;10.092;2023-04-28T06:08:43;101340.50;;;7.90;56.94
72285;BME280;60220;53.552;10.092;2023-04-28T06:11:13;101337.56;;;8.86;54.80
72285;BME280;60220;53.552;10.092;2023-04-28T06:13:39;101342.78;;;8.80;55.16
72285;BME280;60220;53.552;10.092;2023-04-28T06:16:08;101335.78;;;8.79;55.89
72285;BME280;60220;53.552;10.092;2023-04-28T06:18:36;101342.75;;;8.77;56.89
72285;BME280;60220;53.552;10.092;2023-04-28T06:21:02;101337.06;;;7.98;55.94
72285;BME280;60220;53.552;10.092;2023-04-28T06:23:31;101338.31;;;8.55;53.58
72285;BME280;60220;53.552;10.092;2023-04-28T06:25:59;101335.91;;;9.22;53.39
72285;BME280;60220;53.552;10.092;2023-04-28T06:28:28;101328.78;;;8.66;54.22
72285;BME280;60220;53.552;10.092;2023-04-28T06:30:55;101332.44;;;9.47;51.92
72285;BME280;60220;53.552;10.092;2023-04-28T06:33:21;101328.97;;;9.84;51.02
72285;BME280;60220;53.552;10.092;2023-04-28T06:35:52;101328.97;;;9.36;51.53
72285;BME280;60220;53.552;10.092;2023-04-28T06:38:18;101338.50;;;9.06;51.37
72285;BME280;60220;53.552;10.092;2023-04-28T06:40:45;101333.28;;;9.23;51.35
72285;BME280;60220;53.552;10.092;2023-04-28T06:43:14;101328.09;;;9.90;50.56
72285;BME280;60220;53.552;10.092;2023-04-28T06:45:41;101323.72;;;9.84;49.55
72285;BME280;60220;53.552;10.092;2023-04-28T06:48:11;101325.44;;;10.07;49.12
72285;BME280;60220;53.552;10.092;2023-04-28T06:50:38;101326.31;;;9.92;48.47
72285;BME280;60220;53.552;10.092;2023-04-28T06:53:06;101312.34;;;9.76;47.52
72285;BME280;60220;53.552;10.092;2023-04-28T06:55:35;101318.47;;;10.00;48.13
72285;BME280;60220;53.552;10.092;2023-04-28T06:58:02;101318.44;;;10.09;47.45
72285;BME280;60220;53.552;10.092;2023-04-28T07:00:31;101316.44;;;10.87;47.54
72285;BME280;60220;53.552;10.092;2023-04-28T07:02:58;101314.66;;;10.95;48.73
72285;BME280;60220;53.552;10.092;2023-04-28T07:05:25;101309.50;;;10.73;46.71
72285;BME280;60220;53.552;10.092;2023-04-28T07:07:55;101305.69;;;11.26;44.65
72285;BME280;60220;53.552;10.092;2023-04-28T07:10:23;101311.03;;;11.11;46.35
72285;BME280;60220;53.552;10.092;2023-04-28T07:12:50;101305.53;;;11.47;44.24
72285;BME280;60220;53.552;10.092;2023-04-28T07:15:17;101309.34;;;11.04;45.84
72285;BME280;60220;53.552;10.092;2023-04-28T07:17:46;101300.94;;;11.72;43.63
72285;BME280;60220;53.552;10.092;2023-04-28T07:20:13;101296.69;;;11.57;43.15
72285;BME280;60220;53.552;10.092;2023-04-28T07:22:42;101298.66;;;11.34;44.92
72285;BME280;60220;53.552;10.092;2023-04-28T07:25:09;101299.63;;;11.19;43.13
72285;BME280;60220;53.552;10.092;2023-04-28T07:27:37;101293.47;;;11.22;43.91
72285;BME280;60220;53.552;10.092;2023-04-28T07:30:05;101286.72;;;11.96;42.41
72285;BME280;60220;53.552;10.092;2023-04-28T07:32:32;101282.22;;;12.07;44.49
72285;BME280;60220;53.552;10.092;2023-04-28T07:34:59;101288.22;;;12.91;41.71
72285;BME280;60220;53.552;10.092;2023-04-28T07:37:25;101286.94;;;13.21;40.94
72285;BME280;60220;53.552;10.092;2023-04-28T07:39:52;101278.63;;;12.87;41.06
72285;BME280;60220;53.552;10.092;2023-04-28T07:42:21;101281.78;;;13.12;40.24
72285;BME280;60220;53.552;10.092;2023-04-28T07:44:50;101287.78;;;13.23;41.01
72285;BME280;60220;53.552;10.092;2023-04-28T07:47:17;101277.91;;;13.88;38.73
72285;BME280;60220;53.552;10.092;2023-04-28T07:49:46;101282.84;;;12.99;41.12
72285;BME280;60220;53.552;10.092;2023-04-28T07:52:14;101282.44;;;13.29;41.23
72285;BME280;60220;53.552;10.092;2023-04-28T07:54:41;101277.81;;;12.82;41.72
72285;BME280;60220;53.552;10.092;2023-04-28T07:57:08;101267.97;;;13.52;40.97
72285;BME280;60220;53.552;10.092;2023-04-28T07:59:35;101279.47;;;13.49;41.24
72285;BME280;60220;53.552;10.092;2023-04-28T08:02:03;101277.53;;;13.02;40.95
72285;BME280;60220;53.552;10.092;2023-04-28T08:04:31;101269.28;;;13.78;39.61
72285;BME280;60220;53.552;10.092;2023-04-28T08:06:59;101279.00;;;12.60;40.98
72285;BME280;60220;53.552;10.092;2023-04-28T08:09:26;101271.78;;;12.73;42.37
72285;BME280;60220;53.552;10.092;2023-04-28T08:11:52;101265.44;;;12.86;41.39
72285;BME280;60220;53.552;10.092;2023-04-28T08:14:20;101270.72;;;12.87;41.12
72285;BME280;60220;53.552;10.092;2023-04-28T08:16:47;101268.72;;;13.03;42.09
72285;BME280;60220;53.552;10.092;2023-04-28T08:19:15;101257.78;;;13.30;40.41
72285;BME280;60220;53.552;10.092;2023-04-28T08:21:41;101246.03;;;12.94;42.17
72285;BME280;60220;53.552;10.092;2023-04-28T08:24:10;101255.84;;;12.83;41.14
72285;BME280;60220;53.552;10.092;2023-04-28T08:26:39;101255.97;;;12.01;41.50
72285;BME280;60220;53.552;10.092;2023-04-28T08:29:06;101249.03;;;12.67;40.17
72285;BME280;60220;53.552;10.092;2023-04-28T08:31:33;101254.97;;;13.41;39.39
72285;BME280;60220;53.552;10.092;2023-04-28T08:34:02;101253.56;;;13.71;38.36
72285;BME280;60220;53.552;10.092;2023-04-28T08:36:30;101251.28;;;14.00;39.29
72285;BME280;60220;53.552;10.092;2023-04-28T08:38:58;101251.66;;;14.25;38.84
72285;BME280;60220;53.552;10.092;2023-04-28T08:41:26;101253.81;;;13.59;38.42
72285;BME280;60220;53.552;10.092;2023-04-28T08:43:55;101243.69;;;13.84;40.33
72285;BME280;60220;53.552;10.092;2023-04-28T08:46:26;101259.13;;;13.56;39.67
72285;BME280;60220;53.552;10.092;2023-04-28T08:48:58;101243.53;;;13.44;39.51
72285;BME280;60220;53.552;10.092;2023-04-28T08:51:31;101245.50;;;13.29;39.22
72285;BME280;60220;53.552;10.092;2023-04-28T08:54:01;101241.22;;;13.21;40.08
72285;BME280;60220;53.552;10.092;2023-04-28T08:56:31;101245.72;;;13.68;39.09
72285;BME280;60220;53.552;10.092;2023-04-28T08:59:01;101238.94;;;14.02;39.09
72285;BME280;60220;53.552;10.092;2023-04-28T09:01:28;101234.56;;;14.00;38.21
72285;BME280;60220;53.552;10.092;2023-04-28T09:04:00;101233.34;;;13.71;38.68
72285;BME280;60220;53.552;10.092;2023-04-28T09:06:34;101239.94;;;13.48;39.56
72285;BME280;60220;53.552;10.092;2023-04-28T09:09:19;101231.63;;;13.20;40.84
72285;BME280;60220;53.552;10.092;2023-04-28T09:11:55;101230.63;;;13.25;41.42
72285;BME280;60220;53.552;10.092;2023-04-28T09:14:24;101223.03;;;12.44;42.32
72285;BME280;60220;53.552;10.092;2023-04-28T09:16:51;101222.09;;;13.07;40.76
72285;BME280;60220;53.552;10.092;2023-04-28T09:19:20;101217.66;;;13.12;40.44
72285;BME280;60220;53.552;10.092;2023-04-28T09:21:53;101211.00;;;13.43;40.85
72285;BME280;60220;53.552;10.092;2023-04-28T09:24:28;101212.91;;;13.84;39.32
72285;BME280;60220;53.552;10.092;2023-04-28T09:26:58;101214.00;;;13.20;40.24
72285;BME280;60220;53.552;10.092;2023-04-28T09:29:26;101211.88;;;13.44;40.88
72285;BME280;60220;53.552;10.092;2023-04-28T09:31:53;101211.25;;;13.77;40.12
72285;BME280;60220;53.552;10.092;2023-04-28T09:34:20;101204.97;;;13.84;40.87
72285;BME280;60220;53.552;10.092;2023-04-28T09:36:47;101208.09;;;13.57;41.21
72285;BME280;60220;53.552;10.092;2023-04-28T09:39:27;101199.41;;;13.53;40.64
72285;BME280;60220;53.552;10.092;2023-04-28T09:41:56;101204.75;;;13.49;40.00
72285;BME280;60220;53.552;10.092;2023-04-28T09:44:27;101207.19;;;13.59;39.65
72285;BME280;60220;53.552;10.092;2023-04-28T09:46:54;101198.75;;;13.87;39.74
72285;BME280;60220;53.552;10.092;2023-04-28T09:49:21;101194.34;;;13.87;40.72
72285;BME280;60220;53.552;10.092;2023-04-28T09:51:47;101202.00;;;13.55;41.69
72285;BME280;60220;53.552;10.092;2023-04-28T09:54:16;101198.16;;;13.71;40.81
72285;BME280;60220;53.552;10.092;2023-04-28T09:56:49;101195.19;;;13.43;41.28
72285;BME280;60220;53.552;10.092;2023-04-28T09:59:16;101189.56;;;13.09;42.01
72285;BME280;60220;53.552;10.092;2023-04-28T10:01:43;101188.97;;;12.92;41.95
72285;BME280;60220;53.552;10.092;2023-04-28T10:04:11;101180.53;;;13.25;43.10
72285;BME280;60220;53.552;10.092;2023-04-28T10:06:38;101172.66;;;13.24;41.82
72285;BME280;60220;53.552;10.092;2023-04-28T10:09:05;101181.03;;;14.38;41.44
72285;BME280;60220;53.552;10.092;2023-04-28T10:11:34;101176.81;;;14.28;40.05
72285;BME280;60220;53.552;10.092;2023-04-28T10:14:04;101173.28;;;14.29;39.80
72285;BME280;60220;53.552;10.092;2023-04-28T10:16:31;101157.78;;;14.90;38.72
72285;BME280;60220;53.552;10.092;2023-04-28T10:18:58;101159.22;;;14.27;40.60
72285;BME280;60220;53.552;10.092;2023-04-28T10:21:28;101164.59;;;14.23;40.04
72285;BME280;60220;53.552;10.092;2023-04-28T10:27:01;101151.59;;;14.13;40.30
72285;BME280;60220;53.552;10.092;2023-04-28T10:29:29;101143.50;;;14.20;40.54
72285;BME280;60220;53.552;10.092;2023-04-28T10:32:16;101141.09;;;14.10;39.70
72285;BME280;60220;53.552;10.092;2023-04-28T10:34:45;101128.97;;;14.43;39.73
72285;BME280;60220;53.552;10.092;2023-04-28T10:37:15;101133.06;;;14.93;39.22
72285;BME280;60220;53.552;10.092;2023-04-28T10:42:59;101117.81;;;14.67;39.58
72285;BME280;60220;53.552;10.092;2023-04-28T10:46:03;101116.38;;;14.54;39.26
72285;BME280;60220;53.552;10.092;2023-04-28T10:48:55;101117.34;;;14.50;38.80
72285;BME280;60220;53.552;10.092;2023-04-28T10:51:27;101122.53;;;14.14;40.00
72285;BME280;60220;53.552;10.092;2023-04-28T10:54:12;101116.97;;;14.27;39.13
72285;BME280;60220;53.552;10.092;2023-04-28T10:56:41;101117.75;;;13.90;40.26
72285;BME280;60220;53.552;10.092;2023-04-28T10:59:31;101116.63;;;14.43;40.05
72285;BME280;60220;53.552;10.092;2023-04-28T11:05:12;101117.81;;;14.67;38.95
72285;BME280;60220;53.552;10.092;2023-04-28T11:11:19;101102.22;;;14.56;38.91
72285;BME280;60220;53.552;10.092;2023-04-28T11:13:48;101097.91;;;14.54;39.17
72285;BME280;60220;53.552;10.092;2023-04-28T11:16:20;101109.91;;;14.29;39.87
72285;BME280;60220;53.552;10.092;2023-04-28T11:19:07;101104.06;;;14.54;39.44
72285;BME280;60220;53.552;10.092;2023-04-28T11:21:38;101109.06;;;14.65;38.75
72285;BME280;60220;53.552;10.092;2023-04-28T11:24:10;101099.56;;;14.93;39.23
72285;BME280;60220;53.552;10.092;2023-04-28T11:26:37;101104.72;;;14.62;39.08
72285;BME280;60220;53.552;10.092;2023-04-28T11:29:03;101097.28;;;14.43;39.63
72285;BME280;60220;53.552;10.092;2023-04-28T11:31:32;101089.38;;;14.78;38.94
72285;BME280;60220;53.552;10.092;2023-04-28T11:34:02;101093.66;;;14.84;38.91
72285;BME280;60220;53.552;10.092;2023-04-28T11:36:32;101087.22;;;14.94;38.91
72285;BME280;60220;53.552;10.092;2023-04-28T11:39:00;101091.69;;;14.55;39.48
72285;BME280;60220;53.552;10.092;2023-04-28T11:41:29;101081.84;;;14.61;39.48
72285;BME280;60220;53.552;10.092;2023-04-28T11:43:59;101090.88;;;14.53;39.43
72285;BME280;60220;53.552;10.092;2023-04-28T11:46:26;101078.94;;;14.72;39.50
72285;BME280;60220;53.552;10.092;2023-04-28T11:49:01;101079.00;;;15.04;39.01
72285;BME280;60220;53.552;10.092;2023-04-28T11:51:33;101081.38;;;14.80;39.31
72285;BME280;60220;53.552;10.092;2023-04-28T11:54:04;101073.06;;;14.22;40.37
72285;BME280;60220;53.552;10.092;2023-04-28T11:56:36;101074.63;;;15.03;38.83
72285;BME280;60220;53.552;10.092;2023-04-28T11:59:04;101070.34;;;15.32;38.63
72285;BME280;60220;53.552;10.092;2023-04-28T12:01:33;101069.91;;;15.47;38.87
72285;BME280;60220;53.552;10.092;2023-04-28T12:04:03;101070.03;;;14.76;39.90
72285;BME280;60220;53.552;10.092;2023-04-28T12:06:30;101063.81;;;15.13;39.34
72285;BME280;60220;53.552;10.092;2023-04-28T12:08:56;101062.94;;;14.78;40.96
72285;BME280;60220;53.552;10.092;2023-04-28T12:11:28;101062.38;;;14.99;39.59
72285;BME280;60220;53.552;10.092;2023-04-28T12:14:02;101057.56;;;14.46;41.13
72285;BME280;60220;53.552;10.092;2023-04-28T12:16:41;101056.25;;;14.99;40.79
72285;BME280;60220;53.552;10.092;2023-04-28T12:19:11;101062.47;;;14.96;39.39
72285;BME280;60220;53.552;10.092;2023-04-28T12:21:42;101057.56;;;14.81;40.04
72285;BME280;60220;53.552;10.092;2023-04-28T12:24:16;101053.13;;;14.09;40.88
72285;BME280;60220;53.552;10.092;2023-04-28T12:26:46;101048.16;;;14.70;40.38
72285;BME280;60220;53.552;10.092;2023-04-28T12:29:35;101041.06;;;15.05;40.35
72285;BME280;60220;53.552;10.092;2023-04-28T12:32:04;101046.50;;;15.33;40.17
72285;BME280;60220;53.552;10.092;2023-04-28T12:34:35;101038.91;;;15.20;38.77
72285;BME280;60220;53.552;10.092;2023-04-28T12:37:03;101030.84;;;14.93;39.29
72285;BME280;60220;53.552;10.092;2023-04-28T12:39:31;101025.34;;;15.64;39.30
72285;BME280;60220;53.552;10.092;2023-04-28T12:41:58;101028.81;;;15.66;39.25
72285;BME280;60220;53.552;10.092;2023-04-28T12:44:26;101015.28;;;14.81;39.79
72285;BME280;60220;53.552;10.092;2023-04-28T12:46:53;101017.88;;;15.17;40.67
72285;BME280;60220;53.552;10.092;2023-04-28T12:49:23;101014.31;;;15.18;39.55
72285;BME280;60220;53.552;10.092;2023-04-28T12:51:51;101019.34;;;15.27;40.09
72285;BME280;60220;53.552;10.092;2023-04-28T12:54:18;101013.25;;;14.92;40.58
72285;BME280;60220;53.552;10.092;2023-04-28T12:56:44;101003.03;;;15.42;40.01
72285;BME280;60220;53.552;10.092;2023-04-28T12:59:11;101002.91;;;15.16;39.31
72285;BME280;60220;53.552;10.092;2023-04-28T13:01:38;101005.53;;;15.16;40.36
72285;BME280;60220;53.552;10.092;2023-04-28T13:04:04;101008.50;;;15.36;39.91
72285;BME280;60220;53.552;10.092;2023-04-28T13:06:31;101006.41;;;15.47;39.18